sensor_id;sensor_type;location;lat;lon;timestamp;P1;P2;P0
12246;PMS7003;6186;52.022;4.692;2023-04-24T00:01:21;3.00;2.25;0.75
12246;PMS7003;6186;52.022;4.692;2023-04-24T00:03:46;2.00;2.00;0.00
12246;PMS7003;6186;52.022;4.692;2023-04-24T00:06:11;1.00;1.00;0.00
12246;PMS7003;6186;52.022;4.692;2023-04-24T00:08:37;1.00;1.00;0.00
12246;PMS7003;6186;52.022;4.692;2023-04-24T00:11:02;1.00;1.00;0.00
12246;PMS7003;6186;52.022;4.692;2023-04-24T00:13:27;1.00;1.00;0.00
12246;PMS7003;6186;52.022;4.692;2023-04-24T00:15:52;1.25;1.25;0.00
12246;PMS7003;6186;52.022;4.692;2023-04-24T00:18:18;2.00;2.00;0.00
12246;PMS7003;6186;52.022;4.692;2023-04-24T00:20:43;2.00;2.00;0.00
12246;PMS7003;6186;52.022;4.692;2023-04-24T00:23:08;1.25;1.25;0.00
12246;PMS7003;6186;52.022;4.692;2023-04-24T00:25:33;1.00;1.00;0.00
12246;PMS7003;6186;52.022;4.692;2023-04-24T00:27:59;1.75;1.75;0.00
12246;PMS7003;6186;52.022;4.692;2023-04-24T00:30:24;1.75;1.25;0.00
12246;PMS7003;6186;52.022;4.692;2023-04-24T00:32:49;2.00;2.00;0.00
12246;PMS7003;6186;52.022;4.692;2023-04-24T00:35:14;3.00;2.00;0.00
12246;PMS7003;6186;52.022;4.692;2023-04-24T00:37:40;2.00;2.00;0.00
12246;PMS7003;6186;52.022;4.692;2023-04-24T00:40:05;4.25;3.00;1.00
12246;PMS7003;6186;52.022;4.692;2023-04-24T00:42:31;3.00;3.00;1.00
12246;PMS7003;6186;52.022;4.692;2023-04-24T00:44:56;4.00;3.00;1.00
12246;PMS7003;6186;52.022;4.692;2023-04-24T00:47:21;4.25;4.00;1.00
12246;PMS7003;6186;52.022;4.692;2023-04-24T00:49:47;3.75;3.25;1.25
12246;PMS7003;6186;52.022;4.692;2023-04-24T00:52:12;5.00;4.00;2.00
12246;PMS7003;6186;52.022;4.692;2023-04-24T00:54:38;3.00;3.00;1.00
12246;PMS7003;6186;52.022;4.692;2023-04-24T00:57:03;3.00;3.00;1.50
12246;PMS7003;6186;52.022;4.692;2023-04-24T00:59:29;3.00;2.60;1.00
12246;PMS7003;6186;52.022;4.692;2023-04-24T01:01:55;3.40;3.00;1.00
12246;PMS7003;6186;52.022;4.692;2023-04-24T01:04:21;3.00;3.00;1.00
12246;PMS7003;6186;52.022;4.692;2023-04-24T01:06:46;3.00;3.00;1.00
12246;PMS7003;6186;52.022;4.692;2023-04-24T01:09:13;3.40;3.00;1.00
12246;PMS7003;6186;52.022;4.692;2023-04-24T01:11:40;3.00;3.00;1.00
12246;PMS7003;6186;52.022;4.692;2023-04-24T01:14:06;2.00;2.00;1.00
12246;PMS7003;6186;52.022;4.692;2023-04-24T01:16:32;2.75;2.75;1.00
12246;PMS7003;6186;52.022;4.692;2023-04-24T01:18:57;2.75;2.75;0.50
12246;PMS7003;6186;52.022;4.692;2023-04-24T01:21:22;3.00;2.50;0.75
12246;PMS7003;6186;52.022;4.692;2023-04-24T01:23:51;2.00;2.00;0.20
12246;PMS7003;6186;52.022;4.692;2023-04-24T01:26:17;3.25;3.00;0.75
12246;PMS7003;6186;52.022;4.692;2023-04-24T01:28:43;3.40;2.60;0.00
12246;PMS7003;6186;52.022;4.692;2023-04-24T01:31:08;3.00;3.00;1.00
12246;PMS7003;6186;52.022;4.692;2023-04-24T01:33:33;3.50;2.75;0.75
12246;PMS7003;6186;52.022;4.692;2023-04-24T01:35:59;3.00;3.00;1.00
12246;PMS7003;6186;52.022;4.692;2023-04-24T01:38:24;2.25;2.00;1.00
12246;PMS7003;6186;52.022;4.692;2023-04-24T01:40:50;1.75;1.75;0.00
12246;PMS7003;6186;52.022;4.692;2023-04-24T01:43:16;2.20;2.00;0.00
12246;PMS7003;6186;52.022;4.692;2023-04-24T01:45:41;2.00;2.00;0.00
12246;PMS7003;6186;52.022;4.692;2023-04-24T01:48:06;1.00;1.00;0.00
12246;PMS7003;6186;52.022;4.692;2023-04-24T01:50:32;1.25;1.25;0.00
12246;PMS7003;6186;52.022;4.692;2023-04-24T01:52:57;1.00;1.00;0.00
12246;PMS7003;6186;52.022;4.692;2023-04-24T01:55:22;1.50;1.50;0.00
12246;PMS7003;6186;52.022;4.692;2023-04-24T01:57:48;2.00;1.00;0.00
12246;PMS7003;6186;52.022;4.692;2023-04-24T02:00:13;1.00;1.00;0.00
12246;PMS7003;6186;52.022;4.692;2023-04-24T02:02:39;2.00;2.00;0.00
12246;PMS7003;6186;52.022;4.692;2023-04-24T02:05:08;3.00;3.00;0.20
12246;PMS7003;6186;52.022;4.692;2023-04-24T02:07:34;1.60;1.60;0.00
12246;PMS7003;6186;52.022;4.692;2023-04-24T02:49:36;2.00;2.00;0.00
12246;PMS7003;6186;52.022;4.692;2023-04-24T02:52:01;2.00;1.50;0.00
12246;PMS7003;6186;52.022;4.692;2023-04-24T02:54:26;1.75;1.75;0.00
12246;PMS7003;6186;52.022;4.692;2023-04-24T02:56:52;2.50;2.50;0.50
12246;PMS7003;6186;52.022;4.692;2023-04-24T02:59:17;2.00;2.00;0.00
12246;PMS7003;6186;52.022;4.692;2023-04-24T03:01:42;3.00;3.00;1.00
12246;PMS7003;6186;52.022;4.692;2023-04-24T03:04:07;1.75;1.75;0.00
12246;PMS7003;6186;52.022;4.692;2023-04-24T03:06:33;3.00;2.25;0.00
12246;PMS7003;6186;52.022;4.692;2023-04-24T03:08:58;1.00;1.00;0.00
12246;PMS7003;6186;52.022;4.692;2023-04-24T03:11:23;1.75;1.75;0.00
12246;PMS7003;6186;52.022;4.692;2023-04-24T03:13:48;1.00;1.00;0.00
12246;PMS7003;6186;52.022;4.692;2023-04-24T03:16:13;1.00;1.00;0.00
12246;PMS7003;6186;52.022;4.692;2023-04-24T03:18:39;1.00;1.00;0.00
12246;PMS7003;6186;52.022;4.692;2023-04-24T03:21:04;1.00;1.00;0.00
12246;PMS7003;6186;52.022;4.692;2023-04-24T03:23:29;1.00;1.00;0.00
12246;PMS7003;6186;52.022;4.692;2023-04-24T03:25:55;1.00;1.00;0.00
12246;PMS7003;6186;52.022;4.692;2023-04-24T03:28:20;1.00;1.00;0.00
12246;PMS7003;6186;52.022;4.692;2023-04-24T03:30:45;1.00;1.00;0.00
12246;PMS7003;6186;52.022;4.692;2023-04-24T03:33:10;1.00;1.00;0.00
12246;PMS7003;6186;52.022;4.692;2023-04-24T03:35:36;1.00;1.00;0.00
12246;PMS7003;6186;52.022;4.692;2023-04-24T03:38:01;1.00;1.00;0.00
12246;PMS7003;6186;52.022;4.692;2023-04-24T03:40:26;1.00;1.00;0.00
12246;PMS7003;6186;52.022;4.692;2023-04-24T03:42:52;1.00;1.00;0.00
12246;PMS7003;6186;52.022;4.692;2023-04-24T03:45:18;1.00;1.00;0.00
12246;PMS7003;6186;52.022;4.692;2023-04-24T03:47:43;1.00;1.00;0.00
12246;PMS7003;6186;52.022;4.692;2023-04-24T03:50:08;1.00;1.00;0.00
12246;PMS7003;6186;52.022;4.692;2023-04-24T03:52:34;1.00;1.00;0.00
12246;PMS7003;6186;52.022;4.692;2023-04-24T03:54:59;1.00;1.00;0.00
12246;PMS7003;6186;52.022;4.692;2023-04-24T03:57:24;1.00;1.00;0.00
12246;PMS7003;6186;52.022;4.692;2023-04-24T03:59:49;1.00;1.00;0.00
12246;PMS7003;6186;52.022;4.692;2023-04-24T04:02:15;1.00;1.00;0.00
12246;PMS7003;6186;52.022;4.692;2023-04-24T04:04:40;1.00;1.00;0.00
12246;PMS7003;6186;52.022;4.692;2023-04-24T04:07:05;1.00;1.00;0.00
12246;PMS7003;6186;52.022;4.692;2023-04-24T04:09:30;1.00;1.00;0.00
12246;PMS7003;6186;52.022;4.692;2023-04-24T04:11:56;1.00;1.00;0.00
12246;PMS7003;6186;52.022;4.692;2023-04-24T04:14:21;1.00;1.00;0.00
12246;PMS7003;6186;52.022;4.692;2023-04-24T04:16:47;1.00;1.00;0.00
12246;PMS7003;6186;52.022;4.692;2023-04-24T04:19:12;1.00;1.00;0.00
12246;PMS7003;6186;52.022;4.692;2023-04-24T04:21:37;2.00;1.00;0.00
12246;PMS7003;6186;52.022;4.692;2023-04-24T04:24:03;1.00;1.00;0.00
12246;PMS7003;6186;52.022;4.692;2023-04-24T04:26:28;1.00;1.00;0.00
12246;PMS7003;6186;52.022;4.692;2023-04-24T04:28:53;1.00;1.00;0.00
12246;PMS7003;6186;52.022;4.692;2023-04-24T04:31:19;1.00;1.00;0.00
12246;PMS7003;6186;52.022;4.692;2023-04-24T04:33:45;1.00;1.00;0.00
12246;PMS7003;6186;52.022;4.692;2023-04-24T04:36:10;1.00;1.00;0.00
12246;PMS7003;6186;52.022;4.692;2023-04-24T04:38:35;1.00;1.00;0.00
12246;PMS7003;6186;52.022;4.692;2023-04-24T04:41:00;1.00;1.00;0.00
12246;PMS7003;6186;52.022;4.692;2023-04-24T04:43:26;1.00;1.00;0.00
12246;PMS7003;6186;52.022;4.692;2023-04-24T04:45:51;1.00;1.00;0.00
12246;PMS7003;6186;52.022;4.692;2023-04-24T04:48:17;1.00;1.00;0.00
12246;PMS7003;6186;52.022;4.692;2023-04-24T04:50:43;1.00;1.00;0.00
12246;PMS7003;6186;52.022;4.692;2023-04-24T04:53:08;1.00;1.00;0.00
12246;PMS7003;6186;52.022;4.692;2023-04-24T04:55:33;1.00;1.00;0.00
12246;PMS7003;6186;52.022;4.692;2023-04-24T04:57:58;1.50;1.50;0.00
12246;PMS7003;6186;52.022;4.692;2023-04-24T05:00:24;2.00;1.00;0.00
12246;PMS7003;6186;52.022;4.692;2023-04-24T05:02:49;1.50;1.50;0.00
12246;PMS7003;6186;52.022;4.692;2023-04-24T05:05:14;1.00;1.00;0.00
12246;PMS7003;6186;52.022;4.692;2023-04-24T05:07:39;1.25;1.25;0.00
12246;PMS7003;6186;52.022;4.692;2023-04-24T05:10:05;2.00;2.00;0.25
12246;PMS7003;6186;52.022;4.692;2023-04-24T05:12:30;2.00;2.00;1.00
12246;PMS7003;6186;52.022;4.692;2023-04-24T05:14:56;2.50;2.50;1.00
12246;PMS7003;6186;52.022;4.692;2023-04-24T05:17:21;3.00;2.25;0.00
12246;PMS7003;6186;52.022;4.692;2023-04-24T05:19:46;2.00;2.00;0.00
12246;PMS7003;6186;52.022;4.692;2023-04-24T05:22:11;2.00;2.00;0.00
12246;PMS7003;6186;52.022;4.692;2023-04-24T05:24:37;3.00;2.75;1.00
12246;PMS7003;6186;52.022;4.692;2023-04-24T05:27:03;3.00;3.00;1.00
12246;PMS7003;6186;52.022;4.692;2023-04-24T05:29:28;3.60;3.20;1.40
12246;PMS7003;6186;52.022;4.692;2023-04-24T05:31:54;4.00;4.00;2.00
12246;PMS7003;6186;52.022;4.692;2023-04-24T05:34:19;6.75;6.00;2.00
12246;PMS7003;6186;52.022;4.692;2023-04-24T05:36:44;7.00;7.00;3.00
12246;PMS7003;6186;52.022;4.692;2023-04-24T05:39:09;7.25;7.00;3.00
12246;PMS7003;6186;52.022;4.692;2023-04-24T05:41:34;7.75;7.00;3.00
12246;PMS7003;6186;52.022;4.692;2023-04-24T05:44:00;7.50;7.00;3.00
12246;PMS7003;6186;52.022;4.692;2023-04-24T05:46:25;9.75;9.00;5.25
12246;PMS7003;6186;52.022;4.692;2023-04-24T05:48:50;9.50;8.25;4.00
12246;PMS7003;6186;52.022;4.692;2023-04-24T05:51:15;11.00;8.75;4.00
12246;PMS7003;6186;52.022;4.692;2023-04-24T05:53:41;12.00;10.00;6.00
12246;PMS7003;6186;52.022;4.692;2023-04-24T05:56:06;8.50;8.50;6.00
12246;PMS7003;6186;52.022;4.692;2023-04-24T05:58:31;9.50;9.00;4.50
12246;PMS7003;6186;52.022;4.692;2023-04-24T06:00:57;9.00;8.00;4.00
12246;PMS7003;6186;52.022;4.692;2023-04-24T06:03:22;8.00;7.00;3.75
12246;PMS7003;6186;52.022;4.692;2023-04-24T06:05:49;8.00;7.50;3.00
12246;PMS7003;6186;52.022;4.692;2023-04-24T06:08:15;10.20;8.80;4.00
12246;PMS7003;6186;52.022;4.692;2023-04-24T06:10:40;10.25;8.75;4.00
12246;PMS7003;6186;52.022;4.692;2023-04-24T06:13:05;8.00;7.25;3.25
12246;PMS7003;6186;52.022;4.692;2023-04-24T06:15:30;9.50;8.50;4.00
12246;PMS7003;6186;52.022;4.692;2023-04-24T06:17:56;9.50;8.25;4.00
12246;PMS7003;6186;52.022;4.692;2023-04-24T06:20:21;12.00;8.40;3.00
12246;PMS7003;6186;52.022;4.692;2023-04-24T06:22:47;7.00;7.00;3.00
12246;PMS7003;6186;52.022;4.692;2023-04-24T06:25:12;7.00;7.00;3.00
12246;PMS7003;6186;52.022;4.692;2023-04-24T06:27:37;7.50;7.00;3.00
12246;PMS7003;6186;52.022;4.692;2023-04-24T06:30:03;7.50;6.75;3.50
12246;PMS7003;6186;52.022;4.692;2023-04-24T06:32:28;7.00;6.00;3.00
12246;PMS7003;6186;52.022;4.692;2023-04-24T06:34:53;7.25;7.00;3.00
12246;PMS7003;6186;52.022;4.692;2023-04-24T06:37:19;7.25;6.00;2.00
12246;PMS7003;6186;52.022;4.692;2023-04-24T06:39:45;8.80;7.00;3.00
12246;PMS7003;6186;52.022;4.692;2023-04-24T06:42:10;7.75;7.00;3.00
12246;PMS7003;6186;52.022;4.692;2023-04-24T06:44:36;6.00;6.00;2.75
12246;PMS7003;6186;52.022;4.692;2023-04-24T06:47:01;6.00;6.00;2.75
12246;PMS7003;6186;52.022;4.692;2023-04-24T06:49:26;6.00;6.00;2.00
12246;PMS7003;6186;52.022;4.692;2023-04-24T06:51:51;5.50;4.00;2.00
12246;PMS7003;6186;52.022;4.692;2023-04-24T06:54:17;7.50;6.50;2.00
12246;PMS7003;6186;52.022;4.692;2023-04-24T06:56:42;6.00;6.00;2.00
12246;PMS7003;6186;52.022;4.692;2023-04-24T06:59:07;6.25;5.00;2.00
12246;PMS7003;6186;52.022;4.692;2023-04-24T07:01:32;4.50;4.50;2.00
12246;PMS7003;6186;52.022;4.692;2023-04-24T07:03:57;7.25;6.00;2.00
12246;PMS7003;6186;52.022;4.692;2023-04-24T07:06:23;6.00;4.00;2.25
12246;PMS7003;6186;52.022;4.692;2023-04-24T07:08:48;6.50;6.00;3.00
12246;PMS7003;6186;52.022;4.692;2023-04-24T07:11:13;4.75;4.75;2.00
12246;PMS7003;6186;52.022;4.692;2023-04-24T07:13:38;4.00;4.00;2.00
12246;PMS7003;6186;52.022;4.692;2023-04-24T07:16:04;4.00;4.00;1.75
12246;PMS7003;6186;52.022;4.692;2023-04-24T07:18:29;6.75;3.50;1.00
12246;PMS7003;6186;52.022;4.692;2023-04-24T07:20:55;6.00;3.50;2.00
12246;PMS7003;6186;52.022;4.692;2023-04-24T07:23:20;2.50;2.50;0.50
12246;PMS7003;6186;52.022;4.692;2023-04-24T07:25:45;3.25;3.00;1.00
12246;PMS7003;6186;52.022;4.692;2023-04-24T07:28:10;3.50;2.75;0.75
12246;PMS7003;6186;52.022;4.692;2023-04-24T07:30:36;2.50;2.00;1.00
12246;PMS7003;6186;52.022;4.692;2023-04-24T07:33:01;3.00;2.50;0.50
12246;PMS7003;6186;52.022;4.692;2023-04-24T07:35:26;3.00;3.00;1.00
12246;PMS7003;6186;52.022;4.692;2023-04-24T07:37:54;4.00;3.00;1.00
12246;PMS7003;6186;52.022;4.692;2023-04-24T07:40:20;6.00;4.80;2.00
12246;PMS7003;6186;52.022;4.692;2023-04-24T07:42:45;3.50;3.00;1.00
12246;PMS7003;6186;52.022;4.692;2023-04-24T07:45:10;2.00;2.00;0.00
12246;PMS7003;6186;52.022;4.692;2023-04-24T07:47:35;3.75;3.50;1.00
12246;PMS7003;6186;52.022;4.692;2023-04-24T07:50:01;2.00;2.00;0.25
12246;PMS7003;6186;52.022;4.692;2023-04-24T07:52:26;4.25;2.75;1.00
12246;PMS7003;6186;52.022;4.692;2023-04-24T07:54:51;1.75;1.75;0.00
12246;PMS7003;6186;52.022;4.692;2023-04-24T07:57:17;3.00;2.00;0.50
12246;PMS7003;6186;52.022;4.692;2023-04-24T07:59:42;4.50;3.00;1.00
12246;PMS7003;6186;52.022;4.692;2023-04-24T08:02:07;2.75;2.75;1.00
12246;PMS7003;6186;52.022;4.692;2023-04-24T08:04:33;2.00;2.00;0.00
12246;PMS7003;6186;52.022;4.692;2023-04-24T08:06:58;2.00;2.00;0.50
12246;PMS7003;6186;52.022;4.692;2023-04-24T08:09:23;2.75;2.00;0.25
12246;PMS7003;6186;52.022;4.692;2023-04-24T08:11:48;2.75;2.50;0.75
12246;PMS7003;6186;52.022;4.692;2023-04-24T08:14:14;3.00;2.00;0.50
12246;PMS7003;6186;52.022;4.692;2023-04-24T08:16:39;2.25;2.00;0.00
12246;PMS7003;6186;52.022;4.692;2023-04-24T08:19:04;2.75;2.50;1.00
12246;PMS7003;6186;52.022;4.692;2023-04-24T08:21:29;2.75;2.75;1.00
12246;PMS7003;6186;52.022;4.692;2023-04-24T08:23:55;2.75;2.75;0.75
12246;PMS7003;6186;52.022;4.692;2023-04-24T08:26:20;2.00;2.00;0.00
12246;PMS7003;6186;52.022;4.692;2023-04-24T08:28:45;3.00;2.00;1.00
12246;PMS7003;6186;52.022;4.692;2023-04-24T08:31:10;3.00;3.00;1.00
12246;PMS7003;6186;52.022;4.692;2023-04-24T08:33:36;3.00;3.00;1.00
12246;PMS7003;6186;52.022;4.692;2023-04-24T08:36:04;3.50;3.00;1.00
12246;PMS7003;6186;52.022;4.692;2023-04-24T08:38:30;3.20;3.00;0.60
12246;PMS7003;6186;52.022;4.692;2023-04-24T08:40:56;3.00;3.00;1.00
12246;PMS7003;6186;52.022;4.692;2023-04-24T08:43:23;2.40;2.40;1.00
12246;PMS7003;6186;52.022;4.692;2023-04-24T08:45:50;4.20;3.60;1.00
12246;PMS7003;6186;52.022;4.692;2023-04-24T08:48:15;2.50;2.50;1.00
12246;PMS7003;6186;52.022;4.692;2023-04-24T08:50:41;3.80;3.40;1.00
12246;PMS7003;6186;52.022;4.692;2023-04-24T08:53:07;2.80;2.20;0.80
12246;PMS7003;6186;52.022;4.692;2023-04-24T08:55:33;3.00;2.00;0.00
12246;PMS7003;6186;52.022;4.692;2023-04-24T08:57:59;3.25;2.50;0.50
12246;PMS7003;6186;52.022;4.692;2023-04-24T09:00:24;2.25;2.00;1.00
12246;PMS7003;6186;52.022;4.692;2023-04-24T09:02:52;2.80;2.00;0.00
12246;PMS7003;6186;52.022;4.692;2023-04-24T09:05:18;2.00;2.00;0.00
12246;PMS7003;6186;52.022;4.692;2023-04-24T09:07:48;2.00;2.00;0.80
12246;PMS7003;6186;52.022;4.692;2023-04-24T09:10:18;2.00;2.00;0.00
12246;PMS7003;6186;52.022;4.692;2023-04-24T09:12:43;2.75;2.00;0.50
12246;PMS7003;6186;52.022;4.692;2023-04-24T09:15:09;3.00;3.00;1.00
12246;PMS7003;6186;52.022;4.692;2023-04-24T09:17:35;3.00;2.40;0.80
12246;PMS7003;6186;52.022;4.692;2023-04-24T09:20:01;1.00;1.00;0.00
12246;PMS7003;6186;52.022;4.692;2023-04-24T09:22:28;2.00;2.00;0.00
12246;PMS7003;6186;52.022;4.692;2023-04-24T09:25:30;1.20;1.20;0.00
12246;PMS7003;6186;52.022;4.692;2023-04-24T09:27:46;1.00;1.00;0.00
12246;PMS7003;6186;52.022;4.692;2023-04-24T09:30:12;1.00;1.00;0.00
12246;PMS7003;6186;52.022;4.692;2023-04-24T09:32:38;1.20;1.20;0.00
12246;PMS7003;6186;52.022;4.692;2023-04-24T09:35:07;1.00;1.00;0.00
12246;PMS7003;6186;52.022;4.692;2023-04-24T09:37:35;2.60;2.00;0.00
12246;PMS7003;6186;52.022;4.692;2023-04-24T09:40:22;1.00;1.00;0.00
12246;PMS7003;6186;52.022;4.692;2023-04-24T09:42:54;1.60;1.00;0.00
12246;PMS7003;6186;52.022;4.692;2023-04-24T09:45:20;1.20;1.00;0.00
12246;PMS7003;6186;52.022;4.692;2023-04-24T09:47:46;2.00;2.00;0.00
12246;PMS7003;6186;52.022;4.692;2023-04-24T09:50:16;2.00;1.00;0.00
12246;PMS7003;6186;52.022;4.692;2023-04-24T09:52:42;1.00;1.00;0.00
12246;PMS7003;6186;52.022;4.692;2023-04-24T09:55:21;1.20;1.00;0.00
12246;PMS7003;6186;52.022;4.692;2023-04-24T09:57:47;1.80;1.00;0.00
12246;PMS7003;6186;52.022;4.692;2023-04-24T10:00:14;1.40;1.40;0.00
12246;PMS7003;6186;52.022;4.692;2023-04-24T10:02:43;1.00;1.00;0.00
12246;PMS7003;6186;52.022;4.692;2023-04-24T10:05:08;1.75;1.00;0.00
12246;PMS7003;6186;52.022;4.692;2023-04-24T10:07:37;1.00;1.00;0.00
12246;PMS7003;6186;52.022;4.692;2023-04-24T10:10:03;1.00;1.00;0.00
12246;PMS7003;6186;52.022;4.692;2023-04-24T10:12:28;1.75;1.75;0.00
12246;PMS7003;6186;52.022;4.692;2023-04-24T10:14:55;1.40;1.00;0.00
12246;PMS7003;6186;52.022;4.692;2023-04-24T10:17:22;1.00;1.00;0.00
12246;PMS7003;6186;52.022;4.692;2023-04-24T10:19:48;2.00;1.80;0.00
12246;PMS7003;6186;52.022;4.692;2023-04-24T10:22:14;1.00;1.00;0.00
12246;PMS7003;6186;52.022;4.692;2023-04-24T10:24:40;1.00;1.00;0.00
12246;PMS7003;6186;52.022;4.692;2023-04-24T10:27:06;1.50;1.50;0.00
12246;PMS7003;6186;52.022;4.692;2023-04-24T10:29:33;2.20;1.00;0.00
12246;PMS7003;6186;52.022;4.692;2023-04-24T10:32:00;1.00;1.00;0.00
12246;PMS7003;6186;52.022;4.692;2023-04-24T10:34:26;1.00;1.00;0.00
12246;PMS7003;6186;52.022;4.692;2023-04-24T10:36:53;1.40;1.00;0.00
12246;PMS7003;6186;52.022;4.692;2023-04-24T10:39:21;1.60;1.60;0.00
12246;PMS7003;6186;52.022;4.692;2023-04-24T10:41:46;1.00;1.00;0.00
12246;PMS7003;6186;52.022;4.692;2023-04-24T10:44:14;1.40;1.40;0.00
12246;PMS7003;6186;52.022;4.692;2023-04-24T10:46:44;1.00;1.00;0.00
12246;PMS7003;6186;52.022;4.692;2023-04-24T10:49:11;2.00;2.00;0.00
12246;PMS7003;6186;52.022;4.692;2023-04-24T10:51:44;2.50;1.25;0.00
12246;PMS7003;6186;52.022;4.692;2023-04-24T10:54:28;2.00;2.00;0.00
12246;PMS7003;6186;52.022;4.692;2023-04-24T10:56:53;2.00;1.60;0.00
12246;PMS7003;6186;52.022;4.692;2023-04-24T10:59:44;2.00;2.00;0.00
12246;PMS7003;6186;52.022;4.692;2023-04-24T11:02:10;2.00;2.00;0.00
12246;PMS7003;6186;52.022;4.692;2023-04-24T11:04:38;2.20;2.00;0.00
12246;PMS7003;6186;52.022;4.692;2023-04-24T11:07:04;1.25;1.00;0.00
12246;PMS7003;6186;52.022;4.692;2023-04-24T11:09:30;2.00;2.00;0.00
12246;PMS7003;6186;52.022;4.692;2023-04-24T11:12:05;2.00;2.00;0.00
12246;PMS7003;6186;52.022;4.692;2023-04-24T11:20:15;1.40;1.40;0.00
12246;PMS7003;6186;52.022;4.692;2023-04-24T11:22:42;1.00;1.00;0.00
12246;PMS7003;6186;52.022;4.692;2023-04-24T11:25:08;2.00;1.25;0.00
12246;PMS7003;6186;52.022;4.692;2023-04-24T11:27:41;1.00;1.00;0.00
12246;PMS7003;6186;52.022;4.692;2023-04-24T11:30:08;1.60;1.00;0.00
12246;PMS7003;6186;52.022;4.692;2023-04-24T11:32:35;1.00;1.00;0.00
12246;PMS7003;6186;52.022;4.692;2023-04-24T11:37:28;2.00;2.00;0.00
12246;PMS7003;6186;52.022;4.692;2023-04-24T11:40:01;2.00;1.40;0.00
12246;PMS7003;6186;52.022;4.692;2023-04-24T11:42:28;2.60;2.00;0.00
12246;PMS7003;6186;52.022;4.692;2023-04-24T11:44:58;2.00;1.00;0.00
12246;PMS7003;6186;52.022;4.692;2023-04-24T11:47:30;1.00;1.00;0.00
12246;PMS7003;6186;52.022;4.692;2023-04-24T11:49:56;2.40;1.20;0.00
12246;PMS7003;6186;52.022;4.692;2023-04-24T11:52:22;2.00;1.80;0.00
12246;PMS7003;6186;52.022;4.692;2023-04-24T11:54:48;1.00;1.00;0.00
12246;PMS7003;6186;52.022;4.692;2023-04-24T11:57:14;2.00;2.00;0.00
12246;PMS7003;6186;52.022;4.692;2023-04-24T11:59:39;1.50;1.50;0.00
12246;PMS7003;6186;52.022;4.692;2023-04-24T12:02:04;2.25;2.00;0.00
12246;PMS7003;6186;52.022;4.692;2023-04-24T12:04:37;2.00;2.00;0.00
12246;PMS7003;6186;52.022;4.692;2023-04-24T12:07:04;2.00;2.00;0.00
12246;PMS7003;6186;52.022;4.692;2023-04-24T12:09:39;3.00;3.00;0.00
12246;PMS7003;6186;52.022;4.692;2023-04-24T12:12:05;1.40;1.40;0.00
12246;PMS7003;6186;52.022;4.692;2023-04-24T12:14:31;3.00;3.00;1.00
12246;PMS7003;6186;52.022;4.692;2023-04-24T12:16:56;2.75;2.00;1.00
12246;PMS7003;6186;52.022;4.692;2023-04-24T12:19:22;3.00;3.00;1.00
12246;PMS7003;6186;52.022;4.692;2023-04-24T12:22:03;4.00;3.00;1.00
12246;PMS7003;6186;52.022;4.692;2023-04-24T12:24:30;3.00;2.80;1.00
12246;PMS7003;6186;52.022;4.692;2023-04-24T12:26:56;3.00;2.20;1.00
12246;PMS7003;6186;52.022;4.692;2023-04-24T12:29:22;2.20;2.00;0.80
12246;PMS7003;6186;52.022;4.692;2023-04-24T12:31:48;3.00;3.00;1.00
12246;PMS7003;6186;52.022;4.692;2023-04-24T12:36:45;3.60;3.40;1.00
12246;PMS7003;6186;52.022;4.692;2023-04-24T12:39:14;3.00;3.00;1.00
12246;PMS7003;6186;52.022;4.692;2023-04-24T12:42:16;3.20;3.00;1.00
12246;PMS7003;6186;52.022;4.692;2023-04-24T12:44:34;2.80;2.80;1.00
12246;PMS7003;6186;52.022;4.692;2023-04-24T12:47:00;2.75;2.75;0.25
12246;PMS7003;6186;52.022;4.692;2023-04-24T12:49:26;2.00;2.00;1.00
12246;PMS7003;6186;52.022;4.692;2023-04-24T12:51:52;3.00;2.80;1.00
12246;PMS7003;6186;52.022;4.692;2023-04-24T12:54:18;4.20;3.00;1.00
12246;PMS7003;6186;52.022;4.692;2023-04-24T12:56:43;4.50;3.00;1.00
12246;PMS7003;6186;52.022;4.692;2023-04-24T12:59:08;4.00;3.25;1.00
12246;PMS7003;6186;52.022;4.692;2023-04-24T13:01:34;4.00;3.75;1.00
12246;PMS7003;6186;52.022;4.692;2023-04-24T13:03:59;3.00;2.75;1.00
12246;PMS7003;6186;52.022;4.692;2023-04-24T13:06:24;3.00;3.00;1.00
12246;PMS7003;6186;52.022;4.692;2023-04-24T13:08:49;3.00;3.00;1.00
12246;PMS7003;6186;52.022;4.692;2023-04-24T13:11:15;6.25;4.00;1.00
12246;PMS7003;6186;52.022;4.692;2023-04-24T13:13:40;4.50;3.00;1.00
12246;PMS7003;6186;52.022;4.692;2023-04-24T13:16:05;5.00;4.00;1.00
12246;PMS7003;6186;52.022;4.692;2023-04-24T13:18:30;3.25;3.00;1.00
12246;PMS7003;6186;52.022;4.692;2023-04-24T13:20:56;4.00;3.00;1.00
12246;PMS7003;6186;52.022;4.692;2023-04-24T13:23:21;5.00;3.25;1.00
12246;PMS7003;6186;52.022;4.692;2023-04-24T13:25:47;3.00;3.00;1.00
12246;PMS7003;6186;52.022;4.692;2023-04-24T13:28:12;5.25;4.25;1.25
12246;PMS7003;6186;52.022;4.692;2023-04-24T13:30:37;4.25;4.00;1.00
12246;PMS7003;6186;52.022;4.692;2023-04-24T13:33:03;3.00;3.00;1.00
12246;PMS7003;6186;52.022;4.692;2023-04-24T13:35:28;4.00;3.00;1.00
12246;PMS7003;6186;52.022;4.692;2023-04-24T13:37:54;3.75;3.00;1.00
12246;PMS7003;6186;52.022;4.692;2023-04-24T13:40:19;4.00;3.50;1.00
12246;PMS7003;6186;52.022;4.692;2023-04-24T13:42:44;3.25;2.25;0.50
12246;PMS7003;6186;52.022;4.692;2023-04-24T13:45:09;3.25;3.00;1.00
12246;PMS7003;6186;52.022;4.692;2023-04-24T13:47:35;3.00;3.00;1.00
12246;PMS7003;6186;52.022;4.692;2023-04-24T13:50:00;4.50;3.75;1.00
12246;PMS7003;6186;52.022;4.692;2023-04-24T13:52:25;4.75;3.00;1.00
12246;PMS7003;6186;52.022;4.692;2023-04-24T13:54:51;3.75;3.75;1.00
12246;PMS7003;6186;52.022;4.692;2023-04-24T13:57:16;2.75;2.00;0.00
12246;PMS7003;6186;52.022;4.692;2023-04-24T13:59:41;3.25;2.25;1.00
12246;PMS7003;6186;52.022;4.692;2023-04-24T14:02:06;5.00;3.00;1.00
12246;PMS7003;6186;52.022;4.692;2023-04-24T14:04:32;5.00;4.00;1.00
12246;PMS7003;6186;52.022;4.692;2023-04-24T14:06:57;3.50;3.25;1.00
12246;PMS7003;6186;52.022;4.692;2023-04-24T14:09:22;5.00;4.50;2.00
12246;PMS7003;6186;52.022;4.692;2023-04-24T14:11:47;5.00;3.50;1.00
12246;PMS7003;6186;52.022;4.692;2023-04-24T14:14:13;5.50;5.00;2.00
12246;PMS7003;6186;52.022;4.692;2023-04-24T14:16:38;4.75;4.00;1.25
12246;PMS7003;6186;52.022;4.692;2023-04-24T14:19:03;4.25;4.00;1.50
12246;PMS7003;6186;52.022;4.692;2023-04-24T14:21:29;4.50;4.00;1.00
12246;PMS7003;6186;52.022;4.692;2023-04-24T14:23:54;4.00;3.25;1.00
12246;PMS7003;6186;52.022;4.692;2023-04-24T14:26:19;3.00;3.00;1.25
12246;PMS7003;6186;52.022;4.692;2023-04-24T14:28:44;2.50;2.50;0.50
12246;PMS7003;6186;52.022;4.692;2023-04-24T14:31:10;4.50;4.00;1.50
12246;PMS7003;6186;52.022;4.692;2023-04-24T14:33:36;4.00;4.00;1.00
12246;PMS7003;6186;52.022;4.692;2023-04-24T14:36:01;4.00;3.00;1.00
12246;PMS7003;6186;52.022;4.692;2023-04-24T14:38:26;4.00;4.00;2.00
12246;PMS7003;6186;52.022;4.692;2023-04-24T14:40:52;3.00;3.00;1.00
12246;PMS7003;6186;52.022;4.692;2023-04-24T14:43:17;4.00;4.00;2.00
12246;PMS7003;6186;52.022;4.692;2023-04-24T14:45:42;5.00;4.00;1.00
12246;PMS7003;6186;52.022;4.692;2023-04-24T14:48:07;4.00;4.00;2.00
12246;PMS7003;6186;52.022;4.692;2023-04-24T14:50:32;5.00;4.25;2.00
12246;PMS7003;6186;52.022;4.692;2023-04-24T14:52:58;5.25;4.50;1.75
12246;PMS7003;6186;52.022;4.692;2023-04-24T14:55:23;4.00;4.00;2.00
12246;PMS7003;6186;52.022;4.692;2023-04-24T14:57:49;5.20;4.00;1.00
12246;PMS7003;6186;52.022;4.692;2023-04-24T15:00:15;5.25;4.00;2.00
12246;PMS7003;6186;52.022;4.692;2023-04-24T15:02:40;4.25;3.00;1.00
12246;PMS7003;6186;52.022;4.692;2023-04-24T15:05:06;7.00;5.25;2.75
12246;PMS7003;6186;52.022;4.692;2023-04-24T15:07:32;4.40;4.00;2.00
12246;PMS7003;6186;52.022;4.692;2023-04-24T15:09:57;5.00;5.00;2.00
12246;PMS7003;6186;52.022;4.692;2023-04-24T15:12:22;4.00;4.00;1.00
12246;PMS7003;6186;52.022;4.692;2023-04-24T15:14:48;5.50;4.75;2.00
12246;PMS7003;6186;52.022;4.692;2023-04-24T15:17:13;4.00;4.00;2.00
12246;PMS7003;6186;52.022;4.692;2023-04-24T15:19:38;5.00;4.75;1.50